sensor_id;sensor_type;location;lat;lon;timestamp;P1;durP1;ratioP1;P2;durP2;ratioP2
11121;SDS011;5615;49.304;10.576;2024-03-17T00:01:35;11.07;;;8.13;;
11121;SDS011;5615;49.304;10.576;2024-03-17T00:04:03;12.80;;;9.03;;
11121;SDS011;5615;49.304;10.576;2024-03-17T00:06:29;13.77;;;9.23;;
11121;SDS011;5615;49.304;10.576;2024-03-17T00:14:06;14.40;;;9.20;;
11121;SDS011;5615;49.304;10.576;2024-03-17T00:16:41;11.10;;;9.07;;
11121;SDS011;5615;49.304;10.576;2024-03-17T00:19:09;11.43;;;8.77;;
11121;SDS011;5615;49.304;10.576;2024-03-17T00:21:37;12.13;;;8.80;;
11121;SDS011;5615;49.304;10.576;2024-03-17T00:26:49;13.50;;;9.63;;
11121;SDS011;5615;49.304;10.576;2024-03-17T00:29:16;11.10;;;9.40;;
11121;SDS011;5615;49.304;10.576;2024-03-17T00:31:42;14.33;;;9.73;;
11121;SDS011;5615;49.304;10.576;2024-03-17T00:34:10;10.17;;;8.13;;
11121;SDS011;5615;49.304;10.576;2024-03-17T00:36:35;11.33;;;8.87;;
11121;SDS011;5615;49.304;10.576;2024-03-17T00:39:02;11.77;;;9.50;;
11121;SDS011;5615;49.304;10.576;2024-03-17T00:41:28;12.07;;;9.60;;
11121;SDS011;5615;49.304;10.576;2024-03-17T00:43:55;10.80;;;8.87;;
11121;SDS011;5615;49.304;10.576;2024-03-17T00:46:21;11.30;;;9.03;;
11121;SDS011;5615;49.304;10.576;2024-03-17T00:48:49;11.53;;;8.80;;
11121;SDS011;5615;49.304;10.576;2024-03-17T00:51:16;12.27;;;8.70;;
11121;SDS011;5615;49.304;10.576;2024-03-17T00:53:43;12.23;;;9.17;;
11121;SDS011;5615;49.304;10.576;2024-03-17T00:56:09;10.53;;;9.40;;
11121;SDS011;5615;49.304;10.576;2024-03-17T01:06:23;15.13;;;11.97;;
11121;SDS011;5615;49.304;10.576;2024-03-17T01:08:50;12.60;;;9.53;;
11121;SDS011;5615;49.304;10.576;2024-03-17T01:24:16;12.87;;;9.90;;
11121;SDS011;5615;49.304;10.576;2024-03-17T01:29:18;11.37;;;9.00;;
11121;SDS011;5615;49.304;10.576;2024-03-17T04:17:42;18.77;;;13.03;;
11121;SDS011;5615;49.304;10.576;2024-03-17T04:22:45;23.47;;;14.03;;
11121;SDS011;5615;49.304;10.576;2024-03-17T04:28:08;21.50;;;13.80;;
11121;SDS011;5615;49.304;10.576;2024-03-17T04:33:12;21.90;;;13.80;;
11121;SDS011;5615;49.304;10.576;2024-03-17T04:35:54;19.57;;;13.93;;
11121;SDS011;5615;49.304;10.576;2024-03-17T04:38:20;21.93;;;14.07;;
11121;SDS011;5615;49.304;10.576;2024-03-17T04:43:22;20.90;;;13.33;;
11121;SDS011;5615;49.304;10.576;2024-03-17T08:15:42;14.53;;;10.53;;
11121;SDS011;5615;49.304;10.576;2024-03-17T08:18:10;14.60;;;11.50;;
11121;SDS011;5615;49.304;10.576;2024-03-17T08:20:37;11.20;;;9.87;;
11121;SDS011;5615;49.304;10.576;2024-03-17T08:23:04;15.37;;;10.57;;
11121;SDS011;5615;49.304;10.576;2024-03-17T08:25:38;14.83;;;10.53;;
11121;SDS011;5615;49.304;10.576;2024-03-17T08:28:05;11.50;;;10.30;;
11121;SDS011;5615;49.304;10.576;2024-03-17T08:30:32;10.40;;;9.30;;
11121;SDS011;5615;49.304;10.576;2024-03-17T08:33:00;11.90;;;10.50;;
11121;SDS011;5615;49.304;10.576;2024-03-17T08:35:27;11.60;;;9.77;;
11121;SDS011;5615;49.304;10.576;2024-03-17T08:37:54;10.73;;;8.93;;
11121;SDS011;5615;49.304;10.576;2024-03-17T08:40:21;12.27;;;10.70;;
11121;SDS011;5615;49.304;10.576;2024-03-17T08:42:48;10.97;;;9.57;;
11121;SDS011;5615;49.304;10.576;2024-03-17T08:45:15;13.30;;;10.07;;
11121;SDS011;5615;49.304;10.576;2024-03-17T08:47:42;10.97;;;9.40;;
11121;SDS011;5615;49.304;10.576;2024-03-17T08:50:10;10.90;;;9.80;;
11121;SDS011;5615;49.304;10.576;2024-03-17T08:52:37;12.30;;;9.67;;
11121;SDS011;5615;49.304;10.576;2024-03-17T08:55:04;12.80;;;9.10;;
11121;SDS011;5615;49.304;10.576;2024-03-17T08:57:35;11.37;;;8.93;;
11121;SDS011;5615;49.304;10.576;2024-03-17T09:00:01;9.73;;;8.73;;
11121;SDS011;5615;49.304;10.576;2024-03-17T09:02:28;9.80;;;7.17;;
11121;SDS011;5615;49.304;10.576;2024-03-17T09:04:55;7.73;;;7.03;;
11121;SDS011;5615;49.304;10.576;2024-03-17T09:07:23;8.63;;;7.10;;
11121;SDS011;5615;49.304;10.576;2024-03-17T09:09:50;10.03;;;7.57;;
11121;SDS011;5615;49.304;10.576;2024-03-17T09:12:17;8.53;;;7.30;;
11121;SDS011;5615;49.304;10.576;2024-03-17T09:14:46;7.77;;;6.97;;
11121;SDS011;5615;49.304;10.576;2024-03-17T09:17:14;7.80;;;6.70;;
11121;SDS011;5615;49.304;10.576;2024-03-17T09:19:44;8.30;;;6.93;;
11121;SDS011;5615;49.304;10.576;2024-03-17T09:22:12;8.32;;;6.90;;
11121;SDS011;5615;49.304;10.576;2024-03-17T09:24:41;9.90;;;7.18;;
11121;SDS011;5615;49.304;10.576;2024-03-17T09:27:08;9.50;;;6.93;;
11121;SDS011;5615;49.304;10.576;2024-03-17T09:29:36;8.20;;;7.00;;
11121;SDS011;5615;49.304;10.576;2024-03-17T09:32:06;7.80;;;7.00;;
11121;SDS011;5615;49.304;10.576;2024-03-17T09:34:36;7.35;;;6.65;;
11121;SDS011;5615;49.304;10.576;2024-03-17T09:37:03;8.52;;;6.53;;
11121;SDS011;5615;49.304;10.576;2024-03-17T09:39:32;8.48;;;6.50;;
11121;SDS011;5615;49.304;10.576;2024-03-17T09:42:00;7.97;;;6.78;;
11121;SDS011;5615;49.304;10.576;2024-03-17T09:44:28;7.03;;;6.30;;
11121;SDS011;5615;49.304;10.576;2024-03-17T09:46:56;8.05;;;6.78;;
11121;SDS011;5615;49.304;10.576;2024-03-17T09:49:23;9.32;;;6.35;;
11121;SDS011;5615;49.304;10.576;2024-03-17T09:51:50;6.88;;;6.20;;
11121;SDS011;5615;49.304;10.576;2024-03-17T09:54:21;6.50;;;5.90;;
11121;SDS011;5615;49.304;10.576;2024-03-17T09:56:47;7.93;;;6.18;;
11121;SDS011;5615;49.304;10.576;2024-03-17T09:59:17;7.35;;;6.15;;
11121;SDS011;5615;49.304;10.576;2024-03-17T10:01:44;6.60;;;6.00;;
11121;SDS011;5615;49.304;10.576;2024-03-17T10:04:14;7.32;;;6.30;;
11121;SDS011;5615;49.304;10.576;2024-03-17T10:06:57;9.05;;;6.60;;
11121;SDS011;5615;49.304;10.576;2024-03-17T10:09:24;6.65;;;5.50;;
11121;SDS011;5615;49.304;10.576;2024-03-17T10:11:53;8.13;;;6.50;;
11121;SDS011;5615;49.304;10.576;2024-03-17T10:14:22;6.70;;;6.00;;
11121;SDS011;5615;49.304;10.576;2024-03-17T10:16:48;7.80;;;6.03;;
11121;SDS011;5615;49.304;10.576;2024-03-17T10:19:16;6.63;;;5.82;;
11121;SDS011;5615;49.304;10.576;2024-03-17T10:21:48;6.28;;;5.68;;
11121;SDS011;5615;49.304;10.576;2024-03-17T10:24:18;6.28;;;5.60;;
11121;SDS011;5615;49.304;10.576;2024-03-17T10:26:46;7.75;;;5.80;;
11121;SDS011;5615;49.304;10.576;2024-03-17T10:29:23;5.60;;;5.10;;
11121;SDS011;5615;49.304;10.576;2024-03-17T10:35:06;6.72;;;5.38;;
11121;SDS011;5615;49.304;10.576;2024-03-17T10:37:56;6.05;;;5.28;;
11121;SDS011;5615;49.304;10.576;2024-03-17T10:40:24;6.90;;;5.60;;
11121;SDS011;5615;49.304;10.576;2024-03-17T10:42:51;6.57;;;5.80;;
11121;SDS011;5615;49.304;10.576;2024-03-17T10:45:20;6.53;;;5.32;;
11121;SDS011;5615;49.304;10.576;2024-03-17T10:47:47;6.28;;;5.15;;
11121;SDS011;5615;49.304;10.576;2024-03-17T10:50:16;6.28;;;5.50;;
11121;SDS011;5615;49.304;10.576;2024-03-17T10:52:46;6.00;;;5.40;;
11121;SDS011;5615;49.304;10.576;2024-03-17T10:55:21;6.32;;;5.72;;
11121;SDS011;5615;49.304;10.576;2024-03-17T10:57:49;5.88;;;5.32;;
11121;SDS011;5615;49.304;10.576;2024-03-17T11:00:20;6.43;;;5.57;;
11121;SDS011;5615;49.304;10.576;2024-03-17T11:02:48;6.55;;;5.95;;
11121;SDS011;5615;49.304;10.576;2024-03-17T11:05:18;5.97;;;5.40;;
11121;SDS011;5615;49.304;10.576;2024-03-17T11:07:47;5.65;;;5.15;;
11121;SDS011;5615;49.304;10.576;2024-03-17T11:10:15;5.72;;;5.05;;
11121;SDS011;5615;49.304;10.576;2024-03-17T11:12:45;5.35;;;4.85;;
11121;SDS011;5615;49.304;10.576;2024-03-17T11:18:27;5.93;;;5.10;;
11121;SDS011;5615;49.304;10.576;2024-03-17T11:21:05;5.70;;;5.20;;
11121;SDS011;5615;49.304;10.576;2024-03-17T11:23:35;4.85;;;4.40;;
11121;SDS011;5615;49.304;10.576;2024-03-17T11:26:04;5.93;;;5.43;;
11121;SDS011;5615;49.304;10.576;2024-03-17T11:28:48;5.97;;;5.28;;
11121;SDS011;5615;49.304;10.576;2024-03-17T11:31:36;6.03;;;5.22;;
11121;SDS011;5615;49.304;10.576;2024-03-17T11:34:07;6.07;;;5.47;;
11121;SDS011;5615;49.304;10.576;2024-03-17T11:36:59;5.95;;;5.40;;
11121;SDS011;5615;49.304;10.576;2024-03-17T11:42:19;5.50;;;5.00;;
11121;SDS011;5615;49.304;10.576;2024-03-17T11:44:57;6.10;;;5.53;;
11121;SDS011;5615;49.304;10.576;2024-03-17T11:47:39;6.38;;;5.60;;
11121;SDS011;5615;49.304;10.576;2024-03-17T11:50:06;5.95;;;4.78;;
11121;SDS011;5615;49.304;10.576;2024-03-17T11:52:36;5.97;;;5.15;;
11121;SDS011;5615;49.304;10.576;2024-03-17T11:55:02;6.30;;;4.88;;
11121;SDS011;5615;49.304;10.576;2024-03-17T11:57:30;5.32;;;4.82;;
11121;SDS011;5615;49.304;10.576;2024-03-17T11:59:56;4.95;;;4.55;;
11121;SDS011;5615;49.304;10.576;2024-03-17T12:02:25;5.60;;;4.95;;
11121;SDS011;5615;49.304;10.576;2024-03-17T12:04:53;5.47;;;4.97;;
11121;SDS011;5615;49.304;10.576;2024-03-17T12:07:23;6.05;;;5.43;;
11121;SDS011;5615;49.304;10.576;2024-03-17T12:09:49;5.97;;;5.35;;
11121;SDS011;5615;49.304;10.576;2024-03-17T12:12:18;5.72;;;5.22;;
11121;SDS011;5615;49.304;10.576;2024-03-17T12:14:45;6.78;;;5.30;;
11121;SDS011;5615;49.304;10.576;2024-03-17T12:17:13;6.35;;;5.80;;
11121;SDS011;5615;49.304;10.576;2024-03-17T12:19:40;6.55;;;5.95;;
11121;SDS011;5615;49.304;10.576;2024-03-17T12:22:14;7.57;;;5.00;;
11121;SDS011;5615;49.304;10.576;2024-03-17T12:24:42;6.05;;;5.45;;
11121;SDS011;5615;49.304;10.576;2024-03-17T12:27:16;6.28;;;5.65;;
11121;SDS011;5615;49.304;10.576;2024-03-17T12:29:43;6.20;;;5.20;;
11121;SDS011;5615;49.304;10.576;2024-03-17T12:32:11;5.85;;;4.90;;
11121;SDS011;5615;49.304;10.576;2024-03-17T12:34:38;5.95;;;5.35;;
11121;SDS011;5615;49.304;10.576;2024-03-17T12:37:06;6.50;;;5.03;;
11121;SDS011;5615;49.304;10.576;2024-03-17T12:39:34;5.20;;;4.70;;
11121;SDS011;5615;49.304;10.576;2024-03-17T12:42:04;5.82;;;5.22;;
11121;SDS011;5615;49.304;10.576;2024-03-17T12:44:32;5.70;;;5.15;;
11121;SDS011;5615;49.304;10.576;2024-03-17T12:46:59;6.15;;;5.55;;
11121;SDS011;5615;49.304;10.576;2024-03-17T12:49:27;6.22;;;5.35;;
11121;SDS011;5615;49.304;10.576;2024-03-17T12:51:54;6.68;;;5.50;;
11121;SDS011;5615;49.304;10.576;2024-03-17T12:54:22;5.60;;;5.03;;
11121;SDS011;5615;49.304;10.576;2024-03-17T12:56:51;7.75;;;5.90;;
11121;SDS011;5615;49.304;10.576;2024-03-17T12:59:46;5.78;;;5.05;;
11121;SDS011;5615;49.304;10.576;2024-03-17T13:02:33;6.68;;;6.07;;
11121;SDS011;5615;49.304;10.576;2024-03-17T13:05:05;6.60;;;5.68;;
11121;SDS011;5615;49.304;10.576;2024-03-17T13:07:42;6.13;;;5.53;;
11121;SDS011;5615;49.304;10.576;2024-03-17T13:10:11;6.70;;;6.00;;
11121;SDS011;5615;49.304;10.576;2024-03-17T13:12:40;7.22;;;5.50;;
11121;SDS011;5615;49.304;10.576;2024-03-17T13:15:08;5.93;;;5.30;;
11121;SDS011;5615;49.304;10.576;2024-03-17T13:17:36;5.88;;;5.38;;
11121;SDS011;5615;49.304;10.576;2024-03-17T13:20:04;6.43;;;5.18;;
11121;SDS011;5615;49.304;10.576;2024-03-17T13:22:33;5.70;;;5.20;;
11121;SDS011;5615;49.304;10.576;2024-03-17T13:25:03;6.65;;;5.18;;
11121;SDS011;5615;49.304;10.576;2024-03-17T13:27:30;5.15;;;4.53;;
11121;SDS011;5615;49.304;10.576;2024-03-17T13:29:58;4.57;;;4.18;;
11121;SDS011;5615;49.304;10.576;2024-03-17T13:32:25;5.50;;;4.80;;
11121;SDS011;5615;49.304;10.576;2024-03-17T13:34:52;7.88;;;6.18;;
11121;SDS011;5615;49.304;10.576;2024-03-17T13:37:19;7.63;;;5.93;;
11121;SDS011;5615;49.304;10.576;2024-03-17T13:39:47;6.45;;;5.50;;
11121;SDS011;5615;49.304;10.576;2024-03-17T13:42:14;6.38;;;5.25;;
11121;SDS011;5615;49.304;10.576;2024-03-17T13:44:41;5.93;;;5.32;;
11121;SDS011;5615;49.304;10.576;2024-03-17T13:47:09;6.07;;;5.47;;
11121;SDS011;5615;49.304;10.576;2024-03-17T13:49:36;6.03;;;5.43;;
11121;SDS011;5615;49.304;10.576;2024-03-17T13:52:03;5.70;;;5.10;;
11121;SDS011;5615;49.304;10.576;2024-03-17T13:54:30;7.00;;;5.47;;
11121;SDS011;5615;49.304;10.576;2024-03-17T13:56:58;7.05;;;5.82;;
11121;SDS011;5615;49.304;10.576;2024-03-17T13:59:27;6.13;;;5.50;;
11121;SDS011;5615;49.304;10.576;2024-03-17T14:01:53;6.40;;;5.50;;
11121;SDS011;5615;49.304;10.576;2024-03-17T14:04:22;8.13;;;5.35;;
11121;SDS011;5615;49.304;10.576;2024-03-17T14:06:49;6.85;;;5.25;;
11121;SDS011;5615;49.304;10.576;2024-03-17T14:09:15;5.80;;;5.30;;
11121;SDS011;5615;49.304;10.576;2024-03-17T14:11:44;7.00;;;5.32;;
11121;SDS011;5615;49.304;10.576;2024-03-17T14:14:11;7.68;;;5.18;;
11121;SDS011;5615;49.304;10.576;2024-03-17T14:16:38;6.60;;;5.50;;
11121;SDS011;5615;49.304;10.576;2024-03-17T14:19:07;6.25;;;5.10;;
11121;SDS011;5615;49.304;10.576;2024-03-17T14:21:38;6.43;;;4.95;;
11121;SDS011;5615;49.304;10.576;2024-03-17T14:24:05;7.78;;;4.90;;
11121;SDS011;5615;49.304;10.576;2024-03-17T14:26:34;7.13;;;4.70;;
11121;SDS011;5615;49.304;10.576;2024-03-17T14:29:01;6.17;;;4.40;;
11121;SDS011;5615;49.304;10.576;2024-03-17T14:31:31;5.53;;;4.43;;
11121;SDS011;5615;49.304;10.576;2024-03-17T14:34:00;5.87;;;4.53;;
11121;SDS011;5615;49.304;10.576;2024-03-17T14:36:27;6.00;;;4.60;;
11121;SDS011;5615;49.304;10.576;2024-03-17T14:38:57;6.30;;;4.77;;
11121;SDS011;5615;49.304;10.576;2024-03-17T14:41:24;6.23;;;4.80;;
11121;SDS011;5615;49.304;10.576;2024-03-17T14:43:53;7.60;;;5.43;;
11121;SDS011;5615;49.304;10.576;2024-03-17T14:46:19;5.67;;;4.70;;
11121;SDS011;5615;49.304;10.576;2024-03-17T14:48:47;5.23;;;4.53;;
11121;SDS011;5615;49.304;10.576;2024-03-17T14:51:15;6.10;;;4.93;;
11121;SDS011;5615;49.304;10.576;2024-03-17T14:53:42;5.80;;;5.20;;
11121;SDS011;5615;49.304;10.576;2024-03-17T14:56:14;6.13;;;5.15;;
11121;SDS011;5615;49.304;10.576;2024-03-17T14:58:42;5.72;;;4.93;;
11121;SDS011;5615;49.304;10.576;2024-03-17T15:01:09;7.80;;;4.85;;
11121;SDS011;5615;49.304;10.576;2024-03-17T15:03:36;6.27;;;5.13;;
11121;SDS011;5615;49.304;10.576;2024-03-17T15:06:04;6.50;;;5.00;;
11121;SDS011;5615;49.304;10.576;2024-03-17T15:08:35;5.60;;;5.10;;
11121;SDS011;5615;49.304;10.576;2024-03-17T15:11:02;5.93;;;5.10;;
11121;SDS011;5615;49.304;10.576;2024-03-17T15:13:30;5.60;;;5.07;;
11121;SDS011;5615;49.304;10.576;2024-03-17T15:15:57;6.33;;;5.60;;
11121;SDS011;5615;49.304;10.576;2024-03-17T15:18:23;6.43;;;5.50;;
11121;SDS011;5615;49.304;10.576;2024-03-17T15:20:53;6.73;;;5.50;;
11121;SDS011;5615;49.304;10.576;2024-03-17T15:23:20;6.60;;;5.47;;
11121;SDS011;5615;49.304;10.576;2024-03-17T15:25:58;5.93;;;5.37;;
11121;SDS011;5615;49.304;10.576;2024-03-17T15:28:25;6.10;;;5.40;;
11121;SDS011;5615;49.304;10.576;2024-03-17T15:30:53;6.73;;;6.03;;
11121;SDS011;5615;49.304;10.576;2024-03-17T15:33:20;6.20;;;5.00;;
11121;SDS011;5615;49.304;10.576;2024-03-17T15:35:49;8.07;;;6.37;;
11121;SDS011;5615;49.304;10.576;2024-03-17T15:38:16;5.93;;;5.30;;
11121;SDS011;5615;49.304;10.576;2024-03-17T15:40:43;6.03;;;4.80;;
11121;SDS011;5615;49.304;10.576;2024-03-17T15:43:11;7.70;;;5.20;;
11121;SDS011;5615;49.304;10.576;2024-03-17T15:45:38;6.03;;;5.43;;
11121;SDS011;5615;49.304;10.576;2024-03-17T15:48:08;6.07;;;5.23;;
11121;SDS011;5615;49.304;10.576;2024-03-17T15:50:35;6.27;;;5.37;;
11121;SDS011;5615;49.304;10.576;2024-03-17T15:53:04;5.67;;;5.10;;
11121;SDS011;5615;49.304;10.576;2024-03-17T15:55:31;10.27;;;6.40;;
11121;SDS011;5615;49.304;10.576;2024-03-17T15:57:58;6.73;;;5.43;;
11121;SDS011;5615;49.304;10.576;2024-03-17T16:00:25;6.43;;;5.40;;
11121;SDS011;5615;49.304;10.576;2024-03-17T16:02:51;7.70;;;5.37;;
11121;SDS011;5615;49.304;10.576;2024-03-17T16:05:22;7.00;;;5.60;;
11121;SDS011;5615;49.304;10.576;2024-03-17T16:07:51;7.50;;;5.57;;
11121;SDS011;5615;49.304;10.576;2024-03-17T16:10:18;7.77;;;5.17;;
11121;SDS011;5615;49.304;10.576;2024-03-17T16:12:48;6.67;;;5.47;;
11121;SDS011;5615;49.304;10.576;2024-03-17T16:15:16;7.17;;;5.63;;
11121;SDS011;5615;49.304;10.576;2024-03-17T16:17:43;7.00;;;5.40;;
11121;SDS011;5615;49.304;10.576;2024-03-17T16:20:12;6.60;;;5.43;;
11121;SDS011;5615;49.304;10.576;2024-03-17T16:23:10;7.00;;;5.10;;
11121;SDS011;5615;49.304;10.576;2024-03-17T16:25:37;7.50;;;5.67;;
11121;SDS011;5615;49.304;10.576;2024-03-17T16:28:03;6.00;;;5.40;;
11121;SDS011;5615;49.304;10.576;2024-03-17T16:30:31;8.33;;;5.70;;
11121;SDS011;5615;49.304;10.576;2024-03-17T16:32:58;8.00;;;6.43;;
11121;SDS011;5615;49.304;10.576;2024-03-17T16:35:25;8.30;;;7.13;;
11121;SDS011;5615;49.304;10.576;2024-03-17T16:37:52;6.03;;;5.43;;
11121;SDS011;5615;49.304;10.576;2024-03-17T16:40:20;8.50;;;6.20;;
11121;SDS011;5615;49.304;10.576;2024-03-17T16:42:46;9.43;;;6.23;;
11121;SDS011;5615;49.304;10.576;2024-03-17T16:45:13;7.93;;;6.03;;
11121;SDS011;5615;49.304;10.576;2024-03-17T16:47:41;7.03;;;5.90;;
11121;SDS011;5615;49.304;10.576;2024-03-17T16:50:08;10.07;;;5.57;;
11121;SDS011;5615;49.304;10.576;2024-03-17T16:52:37;6.57;;;5.73;;
11121;SDS011;5615;49.304;10.576;2024-03-17T16:55:05;7.00;;;5.97;;
11121;SDS011;5615;49.304;10.576;2024-03-17T16:57:35;6.47;;;5.83;;
11121;SDS011;5615;49.304;10.576;2024-03-17T17:00:03;6.70;;;6.00;;
11121;SDS011;5615;49.304;10.576;2024-03-17T17:02:38;6.53;;;5.83;;
11121;SDS011;5615;49.304;10.576;2024-03-17T17:05:05;6.63;;;5.90;;
11121;SDS011;5615;49.304;10.576;2024-03-17T17:07:37;7.67;;;6.50;;
11121;SDS011;5615;49.304;10.576;2024-03-17T17:10:04;6.77;;;5.90;;
11121;SDS011;5615;49.304;10.576;2024-03-17T17:12:32;8.20;;;6.13;;
11121;SDS011;5615;49.304;10.576;2024-03-17T17:15:00;8.43;;;6.20;;
11121;SDS011;5615;49.304;10.576;2024-03-17T17:17:27;8.50;;;6.60;;
11121;SDS011;5615;49.304;10.576;2024-03-17T17:19:55;9.87;;;7.33;;
11121;SDS011;5615;49.304;10.576;2024-03-17T17:22:23;8.73;;;7.20;;
11121;SDS011;5615;49.304;10.576;2024-03-17T17:24:49;7.20;;;6.50;;
11121;SDS011;5615;49.304;10.576;2024-03-17T17:27:16;8.17;;;7.10;;
11121;SDS011;5615;49.304;10.576;2024-03-17T17:29:43;9.47;;;8.20;;
11121;SDS011;5615;49.304;10.576;2024-03-17T17:32:11;9.10;;;7.83;;
11121;SDS011;5615;49.304;10.576;2024-03-17T17:34:38;10.40;;;9.23;;
11121;SDS011;5615;49.304;10.576;2024-03-17T17:37:05;11.17;;;9.67;;
11121;SDS011;5615;49.304;10.576;2024-03-17T17:39:34;13.53;;;10.67;;
11121;SDS011;5615;49.304;10.576;2024-03-17T17:42:01;11.33;;;10.07;;
11121;SDS011;5615;49.304;10.576;2024-03-17T17:44:30;11.07;;;9.93;;
11121;SDS011;5615;49.304;10.576;2024-03-17T17:46:57;12.47;;;8.87;;
11121;SDS011;5615;49.304;10.576;2024-03-17T17:49:26;10.77;;;9.17;;
11121;SDS011;5615;49.304;10.576;2024-03-17T17:51:53;10.63;;;9.03;;
11121;SDS011;5615;49.304;10.576;2024-03-17T17:54:19;10.87;;;9.20;;
11121;SDS011;5615;49.304;10.576;2024-03-17T17:56:48;10.47;;;9.37;;
11121;SDS011;5615;49.304;10.576;2024-03-17T17:59:15;11.50;;;9.37;;
11121;SDS011;5615;49.304;10.576;2024-03-17T18:01:41;10.90;;;9.13;;
11121;SDS011;5615;49.304;10.576;2024-03-17T18:04:08;13.00;;;9.90;;
11121;SDS011;5615;49.304;10.576;2024-03-17T18:06:37;13.63;;;10.93;;
11121;SDS011;5615;49.304;10.576;2024-03-17T18:09:04;14.10;;;11.67;;
11121;SDS011;5615;49.304;10.576;2024-03-17T18:11:35;16.47;;;12.37;;
11121;SDS011;5615;49.304;10.576;2024-03-17T18:14:02;13.60;;;11.57;;
11121;SDS011;5615;49.304;10.576;2024-03-17T18:16:29;16.40;;;12.43;;
11121;SDS011;5615;49.304;10.576;2024-03-17T18:18:56;14.17;;;11.70;;
11121;SDS011;5615;49.304;10.576;2024-03-17T18:21:23;16.30;;;12.73;;
11121;SDS011;5615;49.304;10.576;2024-03-17T18:23:51;16.30;;;12.37;;
11121;SDS011;5615;49.304;10.576;2024-03-17T18:26:19;16.67;;;12.40;;
11121;SDS011;5615;49.304;10.576;2024-03-17T18:28:45;19.03;;;13.03;;
11121;SDS011;5615;49.304;10.576;2024-03-17T18:31:12;15.03;;;12.20;;
11121;SDS011;5615;49.304;10.576;2024-03-17T18:33:39;15.50;;;12.17;;
11121;SDS011;5615;49.304;10.576;2024-03-17T18:36:09;15.47;;;12.93;;
11121;SDS011;5615;49.304;10.576;2024-03-17T18:38:36;15.23;;;13.23;;
11121;SDS011;5615;49.304;10.576;2024-03-17T18:41:05;14.33;;;12.33;;
11121;SDS011;5615;49.304;10.576;2024-03-17T18:43:33;16.90;;;13.67;;
11121;SDS011;5615;49.304;10.576;2024-03-17T18:46:07;16.97;;;13.20;;
11121;SDS011;5615;49.304;10.576;2024-03-17T18:48:34;15.77;;;13.20;;
11121;SDS011;5615;49.304;10.576;2024-03-17T18:51:01;19.77;;;14.20;;
11121;SDS011;5615;49.304;10.576;2024-03-17T18:53:28;16.90;;;13.37;;
11121;SDS011;5615;49.304;10.576;2024-03-17T18:55:58;19.40;;;14.93;;
11121;SDS011;5615;49.304;10.576;2024-03-17T18:58:27;19.17;;;15.30;;
11121;SDS011;5615;49.304;10.576;2024-03-17T19:01:06;31.77;;;21.57;;
11121;SDS011;5615;49.304;10.576;2024-03-17T19:03:33;29.03;;;20.37;;
11121;SDS011;5615;49.304;10.576;2024-03-17T19:06:05;28.83;;;22.90;;
11121;SDS011;5615;49.304;10.576;2024-03-17T19:08:33;37.83;;;25.67;;
11121;SDS011;5615;49.304;10.576;2024-03-17T19:10:59;30.53;;;21.57;;
11121;SDS011;5615;49.304;10.576;2024-03-17T19:13:29;34.63;;;23.90;;
11121;SDS011;5615;49.304;10.576;2024-03-17T19:15:57;31.37;;;23.43;;
11121;SDS011;5615;49.304;10.576;2024-03-17T19:18:29;29.73;;;20.23;;
11121;SDS011;5615;49.304;10.576;2024-03-17T19:21:04;26.83;;;20.03;;
11121;SDS011;5615;49.304;10.576;2024-03-17T19:23:32;28.10;;;21.73;;
11121;SDS011;5615;49.304;10.576;2024-03-17T19:26:00;26.97;;;20.57;;
11121;SDS011;5615;49.304;10.576;2024-03-17T19:28:30;28.13;;;21.33;;
11121;SDS011;5615;49.304;10.576;2024-03-17T19:30:57;21.30;;;17.40;;
11121;SDS011;5615;49.304;10.576;2024-03-17T19:33:25;21.30;;;16.83;;
11121;SDS011;5615;49.304;10.576;2024-03-17T19:35:52;24.53;;;16.93;;
11121;SDS011;5615;49.304;10.576;2024-03-17T19:38:19;20.73;;;15.07;;
11121;SDS011;5615;49.304;10.576;2024-03-17T19:40:52;17.07;;;13.97;;
11121;SDS011;5615;49.304;10.576;2024-03-17T19:43:21;23.30;;;16.50;;
11121;SDS011;5615;49.304;10.576;2024-03-17T19:45:57;20.03;;;15.73;;
11121;SDS011;5615;49.304;10.576;2024-03-17T19:48:24;18.20;;;14.50;;
11121;SDS011;5615;49.304;10.576;2024-03-17T19:50:51;18.03;;;14.70;;
11121;SDS011;5615;49.304;10.576;2024-03-17T19:53:19;17.30;;;14.23;;
11121;SDS011;5615;49.304;10.576;2024-03-17T19:55:46;20.37;;;14.97;;
11121;SDS011;5615;49.304;10.576;2024-03-17T19:58:14;23.87;;;13.67;;
11121;SDS011;5615;49.304;10.576;2024-03-17T20:00:41;20.27;;;14.23;;
11121;SDS011;5615;49.304;10.576;2024-03-17T20:03:10;19.67;;;14.10;;
11121;SDS011;5615;49.304;10.576;2024-03-17T20:05:37;18.23;;;13.73;;
11121;SDS011;5615;49.304;10.576;2024-03-17T20:08:05;20.50;;;13.77;;
11121;SDS011;5615;49.304;10.576;2024-03-17T20:10:32;19.50;;;14.50;;
11121;SDS011;5615;49.304;10.576;2024-03-17T20:12:59;21.17;;;14.67;;
11121;SDS011;5615;49.304;10.576;2024-03-17T20:15:30;21.47;;;15.73;;
11121;SDS011;5615;49.304;10.576;2024-03-17T20:17:57;24.13;;;17.10;;
11121;SDS011;5615;49.304;10.576;2024-03-17T20:20:26;22.60;;;16.50;;
11121;SDS011;5615;49.304;10.576;2024-03-17T20:22:53;20.93;;;15.03;;
11121;SDS011;5615;49.304;10.576;2024-03-17T20:25:20;19.63;;;15.23;;
11121;SDS011;5615;49.304;10.576;2024-03-17T20:27:47;21.17;;;14.13;;
11121;SDS011;5615;49.304;10.576;2024-03-17T20:30:13;25.67;;;16.10;;
11121;SDS011;5615;49.304;10.576;2024-03-17T20:32:46;24.37;;;16.80;;
11121;SDS011;5615;49.304;10.576;2024-03-17T20:35:13;20.60;;;16.67;;
11121;SDS011;5615;49.304;10.576;2024-03-17T20:37:41;22.40;;;15.33;;
11121;SDS011;5615;49.304;10.576;2024-03-17T20:40:08;20.87;;;15.20;;
11121;SDS011;5615;49.304;10.576;2024-03-17T20:42:36;22.67;;;16.40;;
11121;SDS011;5615;49.304;10.576;2024-03-17T20:45:03;20.40;;;15.67;;
11121;SDS011;5615;49.304;10.576;2024-03-17T20:47:30;18.27;;;14.83;;
11121;SDS011;5615;49.304;10.576;2024-03-17T20:49:57;20.17;;;14.63;;
11121;SDS011;5615;49.304;10.576;2024-03-17T20:52:23;21.27;;;15.10;;
11121;SDS011;5615;49.304;10.576;2024-03-17T20:54:51;19.70;;;14.50;;
11121;SDS011;5615;49.304;10.576;2024-03-17T20:57:19;20.33;;;16.40;;
11121;SDS011;5615;49.304;10.576;2024-03-17T20:59:48;19.67;;;14.70;;
11121;SDS011;5615;49.304;10.576;2024-03-17T21:02:15;18.73;;;14.83;;
11121;SDS011;5615;49.304;10.576;2024-03-17T21:04:42;18.67;;;14.90;;
11121;SDS011;5615;49.304;10.576;2024-03-17T21:07:09;18.63;;;15.87;;
11121;SDS011;5615;49.304;10.576;2024-03-17T21:09:36;19.60;;;15.33;;
11121;SDS011;5615;49.304;10.576;2024-03-17T21:15:10;17.37;;;14.40;;
11121;SDS011;5615;49.304;10.576;2024-03-17T21:17:39;19.73;;;15.43;;
11121;SDS011;5615;49.304;10.576;2024-03-17T21:20:06;17.53;;;14.33;;
11121;SDS011;5615;49.304;10.576;2024-03-17T21:22:34;19.40;;;15.40;;
11121;SDS011;5615;49.304;10.576;2024-03-17T21:25:02;26.10;;;16.13;;
11121;SDS011;5615;49.304;10.576;2024-03-17T21:27:31;20.40;;;15.87;;
11121;SDS011;5615;49.304;10.576;2024-03-17T21:29:58;23.17;;;16.43;;
11121;SDS011;5615;49.304;10.576;2024-03-17T21:32:27;23.13;;;16.10;;
11121;SDS011;5615;49.304;10.576;2024-03-17T21:34:55;20.37;;;15.80;;
11121;SDS011;5615;49.304;10.576;2024-03-17T21:37:23;19.10;;;15.37;;
11121;SDS011;5615;49.304;10.576;2024-03-17T21:39:51;19.90;;;14.03;;
11121;SDS011;5615;49.304;10.576;2024-03-17T21:42:18;19.87;;;14.57;;
11121;SDS011;5615;49.304;10.576;2024-03-17T21:44:44;19.63;;;14.20;;
11121;SDS011;5615;49.304;10.576;2024-03-17T21:47:11;20.27;;;14.50;;
11121;SDS011;5615;49.304;10.576;2024-03-17T21:49:40;19.77;;;15.20;;
11121;SDS011;5615;49.304;10.576;2024-03-17T21:52:06;19.13;;;14.10;;
11121;SDS011;5615;49.304;10.576;2024-03-17T21:54:33;20.90;;;14.37;;
11121;SDS011;5615;49.304;10.576;2024-03-17T21:57:00;17.50;;;13.97;;